Time;durP1;ratioP1;P1;durP2;ratioP2;P2;SDS_P1;SDS_P2;PMS_P1;PMS_P2;Temp;Humidity;BMP_temperature;BMP_pressure;BME280_temperature;BME280_humidity;BME280_pressure;Samples;Min_cycle;Max_cycle;Signal;HPM_P1;HPM_P2
2023/10/16 00:01:54;;;;;;;0.73;0.63;;;;;;;;;;5053078;28;20021;-75
2023/10/16 00:04:21;;;;;;;0.60;0.60;;;;;;;;;;5054967;28;20052;-75
2023/10/16 00:06:49;;;;;;;0.40;0.40;;;;;;;;;;5067512;28;20017;-74
2023/10/16 00:09:21;;;;;;;0.43;0.43;;;;;;;;;;5053511;28;20025;-74
2023/10/16 00:11:47;;;;;;;0.30;0.30;;;;;;;;;;5052377;28;20028;-74
2023/10/16 00:14:46;;;;;;;0.47;0.43;;;;;;;;;;5052474;28;20063;-75
2023/10/16 00:17:08;;;;;;;0.47;0.45;;;;;;;;;;5049203;28;20108;-74
2023/10/16 00:19:37;;;;;;;0.68;0.50;;;;;;;;;;5052042;28;20025;-73
2023/10/16 00:22:18;;;;;;;0.40;0.40;;;;;;;;;;5052724;28;20438;-74
2023/10/16 00:24:48;;;;;;;0.47;0.40;;;;;;;;;;5051024;28;20025;-74
2023/10/16 00:27:14;;;;;;;0.45;0.40;;;;;;;;;;5052238;28;20029;-74
2023/10/16 00:29:41;;;;;;;0.45;0.43;;;;;;;;;;5051881;28;20067;-74
2023/10/16 00:32:07;;;;;;;0.65;0.30;;;;;;;;;;5053571;28;20112;-75
2023/10/16 00:34:34;;;;;;;0.22;0.22;;;;;;;;;;5054398;28;20057;-75
2023/10/16 00:37:04;;;;;;;0.28;0.20;;;;;;;;;;5052935;28;20071;-75
2023/10/16 00:39:31;;;;;;;0.40;0.40;;;;;;;;;;5052319;28;20021;-74
2023/10/16 00:41:57;;;;;;;0.63;0.50;;;;;;;;;;5032979;28;20268;-75
2023/10/16 00:44:24;;;;;;;0.45;0.45;;;;;;;;;;5032648;28;20017;-74
2023/10/16 00:46:52;;;;;;;0.50;0.50;;;;;;;;;;5032554;28;20017;-75
2023/10/16 00:49:19;;;;;;;0.25;0.25;;;;;;;;;;5032038;28;20029;-74
2023/10/16 00:51:46;;;;;;;0.52;0.40;;;;;;;;;;5050377;28;20376;-74
2023/10/16 00:54:26;;;;;;;0.40;0.40;;;;;;;;;;5055945;28;20460;-74
2023/10/16 00:56:53;;;;;;;0.40;0.40;;;;;;;;;;5055765;28;20029;-75
2023/10/16 00:59:23;;;;;;;0.50;0.50;;;;;;;;;;5056367;28;20024;-75
2023/10/16 01:02:04;;;;;;;0.30;0.30;;;;;;;;;;5056306;28;20457;-75
2023/10/16 01:04:31;;;;;;;0.63;0.50;;;;;;;;;;5056149;28;20104;-74
2023/10/16 01:06:57;;;;;;;0.30;0.30;;;;;;;;;;5055754;28;20122;-75
2023/10/16 01:09:23;;;;;;;0.35;0.30;;;;;;;;;;5055885;28;20029;-74
2023/10/16 01:11:54;;;;;;;0.40;0.40;;;;;;;;;;5054821;28;20487;-75
2023/10/16 01:14:20;;;;;;;0.40;0.40;;;;;;;;;;5055861;28;20048;-75
2023/10/16 01:16:46;;;;;;;1.17;0.50;;;;;;;;;;5055880;28;20033;-74
2023/10/16 01:19:19;;;;;;;0.30;0.30;;;;;;;;;;5055461;28;20036;-75
2023/10/16 01:21:46;;;;;;;0.30;0.30;;;;;;;;;;5041670;28;20029;-74
2023/10/16 01:24:12;;;;;;;0.40;0.40;;;;;;;;;;5055777;28;20039;-74
2023/10/16 01:26:40;;;;;;;0.68;0.60;;;;;;;;;;5055369;28;20021;-73
2023/10/16 01:29:07;;;;;;;0.50;0.40;;;;;;;;;;5055263;28;20013;-74
2023/10/16 01:31:34;;;;;;;0.52;0.52;;;;;;;;;;5055630;28;20013;-75
2023/10/16 01:34:00;;;;;;;0.55;0.55;;;;;;;;;;5055227;28;20017;-75
2023/10/16 01:36:27;;;;;;;0.60;0.50;;;;;;;;;;5055385;28;20024;-75
2023/10/16 01:38:58;;;;;;;0.73;0.45;;;;;;;;;;5055310;28;20029;-75
2023/10/16 01:41:24;;;;;;;0.63;0.63;;;;;;;;;;5055366;28;20036;-73
2023/10/16 01:43:52;;;;;;;0.50;0.50;;;;;;;;;;5055256;28;20024;-74
2023/10/16 01:46:18;;;;;;;0.55;0.50;;;;;;;;;;5053423;28;20037;-74
2023/10/16 01:48:49;;;;;;;1.27;0.60;;;;;;;;;;5055020;28;20419;-74
2023/10/16 01:51:19;;;;;;;0.80;0.80;;;;;;;;;;5055300;28;20364;-74
2023/10/16 01:53:47;;;;;;;0.75;0.75;;;;;;;;;;5055334;28;20021;-74
2023/10/16 01:56:13;;;;;;;0.60;0.60;;;;;;;;;;5054748;28;20021;-74
2023/10/16 01:58:46;;;;;;;0.73;0.73;;;;;;;;;;5054517;28;20025;-74
2023/10/16 02:01:13;;;;;;;2.25;0.68;;;;;;;;;;5055299;28;20025;-74
2023/10/16 02:03:43;;;;;;;0.80;0.80;;;;;;;;;;5053986;28;20021;-75
2023/10/16 02:06:11;;;;;;;0.60;0.60;;;;;;;;;;5054829;28;20052;-76
2023/10/16 02:08:37;;;;;;;0.98;0.80;;;;;;;;;;5054254;28;20024;-75
2023/10/16 02:11:03;;;;;;;0.57;0.57;;;;;;;;;;5053089;28;20540;-74
2023/10/16 02:13:32;;;;;;;1.23;1.02;;;;;;;;;;5053306;28;20477;-75
2023/10/16 02:15:58;;;;;;;1.33;0.80;;;;;;;;;;5053311;28;20604;-75
2023/10/16 02:18:27;;;;;;;0.57;0.57;;;;;;;;;;5054461;28;20110;-74
2023/10/16 02:20:53;;;;;;;0.88;0.85;;;;;;;;;;5053565;28;20025;-75
2023/10/16 02:23:19;;;;;;;0.52;0.52;;;;;;;;;;5054585;28;20025;-74
2023/10/16 02:25:46;;;;;;;0.70;0.70;;;;;;;;;;5054004;28;20025;-75
2023/10/16 02:28:13;;;;;;;0.60;0.60;;;;;;;;;;5053806;28;20027;-74
2023/10/16 02:30:42;;;;;;;0.70;0.70;;;;;;;;;;5054272;28;20065;-74
2023/10/16 02:33:15;;;;;;;0.70;0.70;;;;;;;;;;5054223;28;20025;-74
2023/10/16 02:35:42;;;;;;;0.50;0.50;;;;;;;;;;5054354;28;20032;-75
2023/10/16 02:38:13;;;;;;;0.55;0.55;;;;;;;;;;5054035;28;20047;-75
2023/10/16 02:40:41;;;;;;;0.63;0.60;;;;;;;;;;5054800;28;20025;-75
2023/10/16 02:43:13;;;;;;;0.95;0.47;;;;;;;;;;5054095;28;20017;-75
2023/10/16 02:45:42;;;;;;;1.08;0.70;;;;;;;;;;5053809;28;20017;-74
2023/10/16 02:48:11;;;;;;;0.63;0.63;;;;;;;;;;5053999;28;20027;-75
2023/10/16 02:50:41;;;;;;;0.80;0.63;;;;;;;;;;5053005;28;20033;-74
2023/10/16 02:53:07;;;;;;;0.88;0.60;;;;;;;;;;5053751;28;20056;-73
2023/10/16 02:55:33;;;;;;;0.60;0.60;;;;;;;;;;5052482;28;20490;-74
2023/10/16 02:58:04;;;;;;;0.70;0.70;;;;;;;;;;5053772;28;20616;-74
2023/10/16 03:00:38;;;;;;;0.60;0.60;;;;;;;;;;5053509;28;20063;-74
2023/10/16 03:03:06;;;;;;;0.50;0.50;;;;;;;;;;5053585;28;20028;-75
2023/10/16 03:05:33;;;;;;;0.60;0.60;;;;;;;;;;5053731;28;20360;-75
2023/10/16 03:08:00;;;;;;;0.60;0.60;;;;;;;;;;5053416;28;20025;-74
2023/10/16 03:10:26;;;;;;;0.85;0.70;;;;;;;;;;5052155;28;20499;-75
2023/10/16 03:12:52;;;;;;;0.65;0.60;;;;;;;;;;5053894;28;20422;-74
2023/10/16 03:15:29;;;;;;;0.88;0.70;;;;;;;;;;5053502;28;20479;-74
2023/10/16 03:17:55;;;;;;;0.60;0.60;;;;;;;;;;5053452;28;20086;-74
2023/10/16 03:20:23;;;;;;;0.88;0.70;;;;;;;;;;5051693;28;20028;-74
2023/10/16 03:22:53;;;;;;;0.88;0.55;;;;;;;;;;5053481;28;20383;-75
2023/10/16 03:25:27;;;;;;;0.35;0.35;;;;;;;;;;5053389;28;20100;-74
2023/10/16 03:27:57;;;;;;;1.38;0.95;;;;;;;;;;5053194;28;20017;-74
2023/10/16 03:30:27;;;;;;;0.85;0.82;;;;;;;;;;5054362;28;20399;-74
2023/10/16 03:32:53;;;;;;;1.17;1.08;;;;;;;;;;5053809;28;20029;-74
2023/10/16 03:35:29;;;;;;;0.77;0.77;;;;;;;;;;5053536;28;20444;-74
2023/10/16 03:37:56;;;;;;;0.98;0.88;;;;;;;;;;5054120;28;20061;-74
2023/10/16 03:40:24;;;;;;;0.80;0.80;;;;;;;;;;5053418;28;20025;-75
2023/10/16 03:42:58;;;;;;;0.98;0.85;;;;;;;;;;5055675;28;20017;-74
2023/10/16 03:45:24;;;;;;;1.23;0.85;;;;;;;;;;5053206;28;20017;-75
2023/10/16 03:47:51;;;;;;;0.95;0.85;;;;;;;;;;5053287;28;20646;-75
2023/10/16 03:50:24;;;;;;;0.80;0.80;;;;;;;;;;5052952;28;20021;-75
2023/10/16 03:52:50;;;;;;;1.15;0.80;;;;;;;;;;5039253;28;20056;-74
2023/10/16 03:55:22;;;;;;;0.95;0.82;;;;;;;;;;5041043;28;20032;-74
2023/10/16 03:57:52;;;;;;;0.60;0.60;;;;;;;;;;5051705;28;20035;-74
2023/10/16 04:00:25;;;;;;;0.95;0.70;;;;;;;;;;5044652;28;20014;-73
2023/10/16 04:02:51;;;;;;;0.93;0.70;;;;;;;;;;5051030;28;20025;-74
2023/10/16 04:05:30;;;;;;;0.50;0.50;;;;;;;;;;5050935;28;20085;-74
2023/10/16 04:07:56;;;;;;;0.55;0.55;;;;;;;;;;5056941;28;20039;-74
2023/10/16 04:10:28;;;;;;;0.77;0.65;;;;;;;;;;5073122;28;20040;-74
2023/10/16 04:12:58;;;;;;;0.47;0.47;;;;;;;;;;5073058;28;20276;-74
2023/10/16 04:18:09;;;;;;;0.40;0.40;;;;;;;;;;5072705;28;20055;-73
2023/10/16 04:20:44;;;;;;;0.47;0.47;;;;;;;;;;5072732;28;20024;-74
2023/10/16 04:23:29;;;;;;;0.82;0.50;;;;;;;;;;5071430;28;20025;-73
2023/10/16 04:29:24;;;;;;;0.50;0.50;;;;;;;;;;5058455;28;20096;-73
2023/10/16 04:31:45;;;;;;;0.63;0.60;;;;;;;;;;5064830;28;20121;-75
2023/10/16 04:48:06;;;;;;;0.95;0.57;;;;;;;;;;5052018;28;20541;-75
2023/10/16 05:06:38;;;;;;;0.60;0.60;;;;;;;;;;5051749;28;20051;-74
2023/10/16 05:15:20;;;;;;;0.60;0.60;;;;;;;;;;5052408;28;20116;-75
2023/10/16 05:17:57;;;;;;;1.77;0.80;;;;;;;;;;5051930;28;20029;-74
2023/10/16 06:14:53;;;;;;;1.90;1.60;;;;;;;;;;5056630;28;20107;-74
2023/10/16 06:17:23;;;;;;;1.70;1.40;;;;;;;;;;5057189;28;20029;-74
2023/10/16 06:19:51;;;;;;;1.77;1.17;;;;;;;;;;5056714;28;20434;-75
2023/10/16 06:22:17;;;;;;;1.70;1.02;;;;;;;;;;5055843;28;20464;-74
2023/10/16 06:24:47;;;;;;;1.38;1.25;;;;;;;;;;5055340;28;20025;-75
2023/10/16 06:27:20;;;;;;;1.15;1.05;;;;;;;;;;5056676;28;20090;-74
2023/10/16 06:29:57;;;;;;;1.48;1.38;;;;;;;;;;5055689;28;20047;-74
2023/10/16 06:32:25;;;;;;;2.45;1.58;;;;;;;;;;5055603;28;20073;-74
2023/10/16 06:35:00;;;;;;;1.85;1.63;;;;;;;;;;5055370;28;20461;-75
2023/10/16 06:37:28;;;;;;;1.83;1.42;;;;;;;;;;5055565;28;20021;-74
2023/10/16 06:39:58;;;;;;;1.85;1.50;;;;;;;;;;5060453;28;20021;-74
2023/10/16 06:42:25;;;;;;;1.92;1.20;;;;;;;;;;5055279;28;20025;-75
2023/10/16 06:44:54;;;;;;;1.52;1.42;;;;;;;;;;5055292;28;20028;-74
2023/10/16 06:47:34;;;;;;;1.52;1.30;;;;;;;;;;5056860;28;20488;-74
2023/10/16 06:50:01;;;;;;;1.80;1.40;;;;;;;;;;5053339;28;20037;-74
2023/10/16 06:52:27;;;;;;;1.95;1.75;;;;;;;;;;5056471;28;20021;-74
2023/10/16 06:54:53;;;;;;;3.05;2.17;;;;;;;;;;5056801;28;20383;-74
2023/10/16 06:57:19;;;;;;;4.70;2.22;;;;;;;;;;5054964;28;20029;-74
2023/10/16 06:59:45;;;;;;;2.47;1.92;;;;;;;;;;5054885;28;20032;-74
2023/10/16 07:02:21;;;;;;;4.05;2.08;;;;;;;;;;5055103;28;20028;-74
2023/10/16 07:04:47;;;;;;;3.13;2.05;;;;;;;;;;5055031;28;20031;-75
2023/10/16 07:07:17;;;;;;;3.42;1.98;;;;;;;;;;5054962;28;20513;-75
2023/10/16 07:09:51;;;;;;;2.00;1.80;;;;;;;;;;5054704;28;20124;-74
2023/10/16 07:12:18;;;;;;;1.95;1.60;;;;;;;;;;5055058;28;20479;-74
2023/10/16 07:15:01;;;;;;;2.25;1.45;;;;;;;;;;5054575;28;20036;-75
2023/10/16 07:17:28;;;;;;;1.90;1.40;;;;;;;;;;5055566;28;20123;-74
2023/10/16 07:20:00;;;;;;;1.90;1.73;;;;;;;;;;5054077;28;20113;-74
2023/10/16 07:22:31;;;;;;;;;;;;;;;;;;5054097;28;20124;-74
2023/10/16 07:25:02;;;;;;;2.92;1.67;;;;;;;;;;5054224;28;20355;-75
2023/10/16 07:27:31;;;;;;;2.03;1.35;;;;;;;;;;5057784;28;20025;-74
2023/10/16 07:29:59;;;;;;;2.17;1.45;;;;;;;;;;5059075;28;20032;-73
2023/10/16 07:32:25;;;;;;;2.00;1.80;;;;;;;;;;5055413;28;20098;-74
2023/10/16 07:34:51;;;;;;;2.20;1.73;;;;;;;;;;5056340;28;20032;-74
2023/10/16 07:37:17;;;;;;;4.05;1.58;;;;;;;;;;5056006;28;20028;-75
2023/10/16 07:39:43;;;;;;;2.83;2.00;;;;;;;;;;5056153;28;20029;-74
2023/10/16 07:42:10;;;;;;;3.63;1.52;;;;;;;;;;5056052;28;20476;-75
2023/10/16 07:44:41;;;;;;;1.67;1.30;;;;;;;;;;5055795;28;20506;-75
2023/10/16 07:47:07;;;;;;;2.22;1.15;;;;;;;;;;5056469;28;20428;-74
2023/10/16 07:49:33;;;;;;;2.67;1.83;;;;;;;;;;5056236;28;20036;-75
2023/10/16 07:52:00;;;;;;;2.38;1.45;;;;;;;;;;5055973;28;20025;-75
2023/10/16 07:54:28;;;;;;;1.80;1.70;;;;;;;;;;5053240;28;20063;-75
2023/10/16 07:56:55;;;;;;;2.25;1.80;;;;;;;;;;5054498;28;20472;-75
2023/10/16 07:59:21;;;;;;;1.48;1.27;;;;;;;;;;5054970;28;20032;-76
2023/10/16 08:02:00;;;;;;;1.45;1.33;;;;;;;;;;5054190;28;20021;-74
2023/10/16 08:06:53;;;;;;;1.33;1.23;;;;;;;;;;5053957;28;20025;-74
2023/10/16 08:11:57;;;;;;;2.85;1.30;;;;;;;;;;5057743;28;20052;-74
2023/10/16 08:14:23;;;;;;;1.45;1.30;;;;;;;;;;5035473;28;20078;-75
2023/10/16 08:16:58;;;;;;;2.22;1.65;;;;;;;;;;5035265;28;20032;-75
2023/10/16 08:19:24;;;;;;;1.63;1.52;;;;;;;;;;5035681;28;20058;-74
2023/10/16 08:21:52;;;;;;;3.70;1.80;;;;;;;;;;5035839;28;20066;-76
2023/10/16 08:24:21;;;;;;;1.52;1.27;;;;;;;;;;5048854;28;20029;-75
2023/10/16 08:26:48;;;;;;;3.28;1.67;;;;;;;;;;5033629;28;20032;-74
2023/10/16 08:31:47;;;;;;;1.55;1.45;;;;;;;;;;5053330;28;20032;-76
2023/10/16 08:34:19;;;;;;;3.10;1.67;;;;;;;;;;5053712;28;20025;-74
2023/10/16 08:36:48;;;;;;;;;;;;;;;;;;5054106;28;20443;-74
2023/10/16 08:39:17;;;;;;;2.20;1.67;;;;;;;;;;5053361;28;20014;-75
2023/10/16 08:41:45;;;;;;;5.97;2.35;;;;;;;;;;5053215;28;20036;-76
2023/10/16 08:44:15;;;;;;;2.35;1.85;;;;;;;;;;5053357;28;20070;-76
2023/10/16 08:49:22;;;;;;;1.70;1.57;;;;;;;;;;5053702;28;20040;-74
2023/10/16 08:52:02;;;;;;;2.45;1.60;;;;;;;;;;5054227;28;20248;-75
2023/10/16 08:57:16;;;;;;;3.78;1.83;;;;;;;;;;5052974;28;20033;-74
2023/10/16 08:59:42;;;;;;;4.07;2.13;;;;;;;;;;5051901;28;20040;-75
2023/10/16 09:02:12;;;;;;;3.17;1.65;;;;;;;;;;5051897;28;20507;-75
2023/10/16 09:04:41;;;;;;;2.88;1.92;;;;;;;;;;5051703;28;20029;-74
2023/10/16 09:07:10;;;;;;;2.25;1.42;;;;;;;;;;5052512;28;20048;-74
2023/10/16 09:09:41;;;;;;;2.08;1.67;;;;;;;;;;5052904;28;20502;-74
2023/10/16 09:12:10;;;;;;;3.08;1.80;;;;;;;;;;5054466;28;20017;-74
2023/10/16 09:14:39;;;;;;;1.48;1.05;;;;;;;;;;5056701;28;20022;-74
2023/10/16 09:17:06;;;;;;;1.63;1.35;;;;;;;;;;5055677;28;20025;-75
2023/10/16 09:19:35;;;;;;;1.13;1.13;;;;;;;;;;5056354;28;20067;-75
2023/10/16 09:22:04;;;;;;;0.98;0.80;;;;;;;;;;5055921;28;20025;-76
2023/10/16 09:24:35;;;;;;;0.73;0.73;;;;;;;;;;5056763;28;20024;-74
2023/10/16 09:27:02;;;;;;;0.93;0.85;;;;;;;;;;5055304;28;20505;-75
2023/10/16 09:29:29;;;;;;;1.63;1.13;;;;;;;;;;5056077;28;20052;-74
2023/10/16 09:31:57;;;;;;;1.30;1.20;;;;;;;;;;5055722;28;20079;-74
2023/10/16 09:34:27;;;;;;;3.17;1.35;;;;;;;;;;5056685;28;20017;-73
2023/10/16 09:39:46;;;;;;;0.93;0.93;;;;;;;;;;5056129;28;20044;-74
2023/10/16 09:42:12;;;;;;;2.33;1.00;;;;;;;;;;5056221;28;20091;-75
2023/10/16 09:44:59;;;;;;;0.77;0.77;;;;;;;;;;5057351;28;20020;-74
2023/10/16 09:47:26;;;;;;;0.80;0.80;;;;;;;;;;5056381;28;20024;-76
2023/10/16 09:49:59;;;;;;;0.60;0.60;;;;;;;;;;5055731;28;20029;-73
2023/10/16 09:52:25;;;;;;;1.00;0.88;;;;;;;;;;5055576;28;20025;-74
2023/10/16 09:54:52;;;;;;;1.52;0.80;;;;;;;;;;5056083;28;20035;-76
2023/10/16 09:57:22;;;;;;;0.93;0.88;;;;;;;;;;5055860;28;20029;-75
2023/10/16 09:59:54;;;;;;;1.98;1.00;;;;;;;;;;5055784;28;20021;-75
2023/10/16 10:02:25;;;;;;;2.33;1.25;;;;;;;;;;5056749;28;20396;-74
2023/10/16 10:04:54;;;;;;;4.10;1.50;;;;;;;;;;5056275;28;20023;-75
2023/10/16 10:07:24;;;;;;;1.88;1.35;;;;;;;;;;5056325;28;20020;-74
2023/10/16 10:09:57;;;;;;;2.42;1.48;;;;;;;;;;5055296;28;20506;-75
2023/10/16 10:12:23;;;;;;;3.60;1.30;;;;;;;;;;5055672;28;20480;-76
2023/10/16 10:15:01;;;;;;;4.63;1.20;;;;;;;;;;5055897;28;20025;-75
2023/10/16 10:17:27;;;;;;;1.80;1.42;;;;;;;;;;5055863;28;20048;-74
2023/10/16 10:19:58;;;;;;;1.45;1.05;;;;;;;;;;5055879;28;20399;-74
2023/10/16 10:22:33;;;;;;;2.55;0.93;;;;;;;;;;5055539;28;20044;-75
2023/10/16 10:25:37;;;;;;;0.82;0.82;;;;;;;;;;5055235;28;20082;-74
2023/10/16 10:28:11;;;;;;;2.20;1.15;;;;;;;;;;5046580;28;20076;-76
2023/10/16 10:30:44;;;;;;;2.47;1.38;;;;;;;;;;5057019;28;20116;-74
2023/10/16 10:33:11;;;;;;;0.98;0.77;;;;;;;;;;5056430;28;20029;-74
2023/10/16 10:35:43;;;;;;;1.92;1.20;;;;;;;;;;5055913;28;20021;-73
2023/10/16 10:38:18;;;;;;;1.30;1.05;;;;;;;;;;5055936;28;20021;-74
2023/10/16 10:41:02;;;;;;;3.20;2.05;;;;;;;;;;5055755;28;20021;-74
2023/10/16 10:43:46;;;;;;;2.17;1.15;;;;;;;;;;5055686;28;20053;-75
2023/10/16 10:46:15;;;;;;;3.92;1.10;;;;;;;;;;5055678;28;20029;-75
2023/10/16 10:48:46;;;;;;;2.00;1.70;;;;;;;;;;5055533;28;20082;-74
2023/10/16 10:51:15;;;;;;;2.50;1.40;;;;;;;;;;5055633;28;20025;-74
2023/10/16 10:53:54;;;;;;;2.53;1.35;;;;;;;;;;5058374;28;20059;-75
2023/10/16 10:56:23;;;;;;;3.85;1.30;;;;;;;;;;5060180;28;20032;-75
2023/10/16 10:58:50;;;;;;;4.45;1.83;;;;;;;;;;5058507;28;20078;-76
2023/10/16 11:01:16;;;;;;;6.90;1.75;;;;;;;;;;5059764;28;20017;-75
2023/10/16 11:03:45;;;;;;;2.80;1.40;;;;;;;;;;5056680;28;20106;-74
2023/10/16 11:06:39;;;;;;;3.92;1.95;;;;;;;;;;5054914;28;20019;-75
2023/10/16 11:09:18;;;;;;;4.15;2.15;;;;;;;;;;5054828;28;20621;-74
2023/10/16 11:11:46;;;;;;;4.45;2.38;;;;;;;;;;5054972;28;20024;-76
2023/10/16 11:14:12;;;;;;;2.90;2.20;;;;;;;;;;5066627;28;20059;-74
2023/10/16 11:16:45;;;;;;;3.58;2.70;;;;;;;;;;5070553;28;20037;-75
2023/10/16 11:19:11;;;;;;;8.57;3.03;;;;;;;;;;5064903;28;20032;-76
2023/10/16 11:21:47;;;;;;;3.75;2.47;;;;;;;;;;5056018;28;20017;-75
2023/10/16 11:24:13;;;;;;;4.40;2.03;;;;;;;;;;5056505;28;20107;-75
2023/10/16 11:26:40;;;;;;;2.60;1.60;;;;;;;;;;5056424;28;20028;-75
2023/10/16 11:29:06;;;;;;;3.97;2.22;;;;;;;;;;5060353;28;20039;-75
2023/10/16 11:31:40;;;;;;;4.40;3.35;;;;;;;;;;5056913;28;20082;-74
2023/10/16 11:34:07;;;;;;;4.90;2.05;;;;;;;;;;5036101;28;20029;-74
2023/10/16 11:36:36;;;;;;;3.30;2.78;;;;;;;;;;5051492;28;20033;-74
2023/10/16 11:39:03;;;;;;;2.90;2.10;;;;;;;;;;5036231;28;20026;-74
2023/10/16 11:41:32;;;;;;;5.03;2.38;;;;;;;;;;5037033;28;20471;-75
2023/10/16 11:44:01;;;;;;;3.83;2.42;;;;;;;;;;5037089;28;20436;-74
2023/10/16 11:49:17;;;;;;;4.13;2.30;;;;;;;;;;5055937;28;20044;-75
2023/10/16 11:51:49;;;;;;;2.42;2.00;;;;;;;;;;5056965;28;20036;-75
2023/10/16 11:54:19;;;;;;;3.78;2.10;;;;;;;;;;5055736;28;20020;-75
2023/10/16 11:56:47;;;;;;;3.78;2.22;;;;;;;;;;5056061;28;20105;-74
2023/10/16 11:59:15;;;;;;;4.15;2.28;;;;;;;;;;5055597;28;20036;-75
2023/10/16 12:01:41;;;;;;;2.97;2.65;;;;;;;;;;5056390;28;20507;-73
2023/10/16 12:04:09;;;;;;;3.92;2.00;;;;;;;;;;5056407;28;20064;-74
2023/10/16 12:06:35;;;;;;;3.00;1.77;;;;;;;;;;5054688;28;20021;-74
2023/10/16 12:09:02;;;;;;;4.10;2.10;;;;;;;;;;5054042;28;20119;-76
2023/10/16 12:11:28;;;;;;;3.55;2.00;;;;;;;;;;5055634;28;20017;-74
2023/10/16 12:13:54;;;;;;;2.88;2.25;;;;;;;;;;5054807;28;20029;-73
2023/10/16 12:16:24;;;;;;;5.32;2.38;;;;;;;;;;5056013;28;20028;-75
2023/10/16 12:18:56;;;;;;;4.05;1.88;;;;;;;;;;5055501;28;20051;-74
2023/10/16 12:21:23;;;;;;;;;;;;;;;;;;5054455;28;20493;-75
2023/10/16 12:23:50;;;;;;;3.25;1.92;;;;;;;;;;5054845;28;19911;-75
2023/10/16 12:26:16;;;;;;;2.88;1.67;;;;;;;;;;5054244;28;20479;-75
2023/10/16 12:28:43;;;;;;;1.98;1.38;;;;;;;;;;5052896;28;20085;-75
2023/10/16 12:31:09;;;;;;;3.80;2.47;;;;;;;;;;5054152;28;20021;-75
2023/10/16 12:33:37;;;;;;;2.92;1.80;;;;;;;;;;5054132;28;20105;-76
2023/10/16 12:36:07;;;;;;;2.40;1.60;;;;;;;;;;5052398;28;20033;-74
2023/10/16 12:38:34;;;;;;;2.42;1.33;;;;;;;;;;5054041;28;20387;-74
2023/10/16 12:41:05;;;;;;;1.65;1.30;;;;;;;;;;5053897;28;20029;-74
2023/10/16 12:43:31;;;;;;;3.38;2.20;;;;;;;;;;5054166;28;20022;-74
2023/10/16 12:45:57;;;;;;;3.20;1.95;;;;;;;;;;5053954;28;20045;-75
2023/10/16 12:48:24;;;;;;;3.97;1.40;;;;;;;;;;5054908;28;20029;-74
2023/10/16 12:50:50;;;;;;;5.10;1.98;;;;;;;;;;5053337;28;20479;-76
2023/10/16 12:53:16;;;;;;;4.10;1.80;;;;;;;;;;5053940;28;20083;-74
2023/10/16 12:55:49;;;;;;;5.22;2.22;;;;;;;;;;5055474;28;20391;-75
2023/10/16 12:58:17;;;;;;;2.72;1.70;;;;;;;;;;5057354;28;20044;-74
2023/10/16 13:00:46;;;;;;;2.45;1.67;;;;;;;;;;5057727;28;20104;-74
2023/10/16 13:03:15;;;;;;;2.92;1.60;;;;;;;;;;5057350;28;20029;-73
2023/10/16 13:05:44;;;;;;;1.30;1.20;;;;;;;;;;5056183;28;20013;-75
2023/10/16 13:08:11;;;;;;;2.70;1.15;;;;;;;;;;5055771;28;20156;-73
2023/10/16 13:10:37;;;;;;;1.70;1.30;;;;;;;;;;5056308;28;20127;-75
2023/10/16 13:13:03;;;;;;;5.43;1.55;;;;;;;;;;5054307;28;20036;-74
2023/10/16 13:15:29;;;;;;;2.35;1.50;;;;;;;;;;5056109;28;20476;-75
2023/10/16 13:17:56;;;;;;;1.42;1.02;;;;;;;;;;5055983;28;20127;-75
2023/10/16 13:20:27;;;;;;;1.55;0.85;;;;;;;;;;5053420;28;20514;-74
2023/10/16 13:22:54;;;;;;;2.67;1.50;;;;;;;;;;5056633;28;20028;-75
2023/10/16 13:25:22;;;;;;;3.35;1.60;;;;;;;;;;5053437;28;20035;-75
2023/10/16 13:27:48;;;;;;;2.33;1.25;;;;;;;;;;5056544;28;20036;-76
2023/10/16 13:30:18;;;;;;;2.45;1.27;;;;;;;;;;5057318;28;20029;-75
2023/10/16 13:32:48;;;;;;;3.45;1.25;;;;;;;;;;5055796;28;20040;-74
2023/10/16 13:35:16;;;;;;;3.58;1.08;;;;;;;;;;5058436;28;20029;-75
2023/10/16 13:37:42;;;;;;;0.80;0.73;;;;;;;;;;5056569;28;20515;-74
2023/10/16 13:40:20;;;;;;;1.50;0.95;;;;;;;;;;5056440;28;20052;-75
2023/10/16 13:42:48;;;;;;;2.70;1.27;;;;;;;;;;5056345;28;20052;-74
2023/10/16 13:45:14;;;;;;;1.20;1.10;;;;;;;;;;5057122;28;20048;-74
2023/10/16 13:47:43;;;;;;;1.85;1.50;;;;;;;;;;5055535;28;20099;-74
2023/10/16 13:50:35;;;;;;;1.75;0.98;;;;;;;;;;5054255;28;20116;-74
2023/10/16 13:53:04;;;;;;;3.92;1.42;;;;;;;;;;5055268;28;20500;-75
2023/10/16 13:55:30;;;;;;;4.88;1.98;;;;;;;;;;5057639;28;20021;-77
2023/10/16 13:57:57;;;;;;;2.67;1.55;;;;;;;;;;5056622;28;20452;-75
2023/10/16 14:00:29;;;;;;;1.45;1.35;;;;;;;;;;5060684;28;20039;-74
2023/10/16 14:02:57;;;;;;;2.47;1.60;;;;;;;;;;5061860;28;20021;-75
2023/10/16 14:05:23;;;;;;;2.60;1.40;;;;;;;;;;5061416;28;20093;-75
2023/10/16 14:07:53;;;;;;;2.33;1.48;;;;;;;;;;5061085;28;20032;-74
2023/10/16 14:10:21;;;;;;;3.15;1.30;;;;;;;;;;5060586;28;20059;-75
2023/10/16 14:12:53;;;;;;;2.72;1.40;;;;;;;;;;5061848;28;20025;-76
2023/10/16 14:15:19;;;;;;;2.58;1.20;;;;;;;;;;5059626;28;20033;-75
2023/10/16 14:17:47;;;;;;;3.70;1.30;;;;;;;;;;5059672;28;20071;-74
2023/10/16 14:20:34;;;;;;;1.73;0.90;;;;;;;;;;5056818;28;20090;-74
2023/10/16 14:22:59;;;;;;;2.50;1.17;;;;;;;;;;5056453;28;20025;-75
2023/10/16 14:25:32;;;;;;;1.55;1.10;;;;;;;;;;5061816;28;20041;-74
2023/10/16 14:28:03;;;;;;;2.78;1.60;;;;;;;;;;5057760;28;20025;-75
2023/10/16 14:30:33;;;;;;;2.30;1.30;;;;;;;;;;5056884;28;20495;-73
2023/10/16 14:32:59;;;;;;;3.63;1.42;;;;;;;;;;5056828;28;20028;-75
2023/10/16 14:35:27;;;;;;;1.05;0.95;;;;;;;;;;5057184;28;20379;-76
2023/10/16 14:37:53;;;;;;;1.45;0.98;;;;;;;;;;5056535;28;20017;-74
2023/10/16 14:40:22;;;;;;;0.63;0.63;;;;;;;;;;5056795;28;20032;-74
2023/10/16 14:42:48;;;;;;;1.13;0.85;;;;;;;;;;5056124;28;20131;-74
2023/10/16 14:45:15;;;;;;;0.85;0.85;;;;;;;;;;5055710;28;20456;-75
2023/10/16 14:47:43;;;;;;;2.65;1.38;;;;;;;;;;5056390;28;20033;-74
2023/10/16 14:50:09;;;;;;;1.63;0.98;;;;;;;;;;5055204;28;20043;-73
2023/10/16 14:52:35;;;;;;;1.55;0.77;;;;;;;;;;5055743;28;20021;-73
2023/10/16 14:55:02;;;;;;;1.75;0.93;;;;;;;;;;5055628;28;20047;-75
2023/10/16 14:57:31;;;;;;;3.60;1.13;;;;;;;;;;5054388;28;20029;-74
2023/10/16 14:59:57;;;;;;;1.35;0.82;;;;;;;;;;5055591;28;20013;-74
2023/10/16 15:02:24;;;;;;;0.93;0.85;;;;;;;;;;5055553;28;20094;-75
2023/10/16 15:04:51;;;;;;;2.05;0.90;;;;;;;;;;5053979;28;20562;-75
2023/10/16 15:07:17;;;;;;;2.08;0.95;;;;;;;;;;5055141;28;20322;-73
2023/10/16 15:09:44;;;;;;;0.60;0.60;;;;;;;;;;5055421;28;20031;-75
2023/10/16 15:12:11;;;;;;;0.95;0.77;;;;;;;;;;5053520;28;20388;-74
2023/10/16 15:14:37;;;;;;;1.73;1.05;;;;;;;;;;5053106;28;20431;-75
2023/10/16 15:17:03;;;;;;;2.67;1.90;;;;;;;;;;5055103;28;20043;-74
2023/10/16 15:19:30;;;;;;;3.42;2.33;;;;;;;;;;5055954;28;20059;-75
2023/10/16 15:21:58;;;;;;;4.47;2.17;;;;;;;;;;5055853;28;20100;-74
2023/10/16 15:24:24;;;;;;;2.95;2.58;;;;;;;;;;5056530;28;20017;-73
2023/10/16 15:26:50;;;;;;;4.47;2.40;;;;;;;;;;5057026;28;20086;-75
2023/10/16 15:29:16;;;;;;;3.35;2.70;;;;;;;;;;5056789;28;20036;-73
2023/10/16 15:31:42;;;;;;;5.75;2.78;;;;;;;;;;5055363;28;20029;-74
2023/10/16 15:34:12;;;;;;;6.22;3.25;;;;;;;;;;5055088;28;20036;-75
2023/10/16 15:36:38;;;;;;;5.07;3.20;;;;;;;;;;5055236;28;20032;-74
2023/10/16 15:39:04;;;;;;;3.22;2.92;;;;;;;;;;5056457;28;20395;-74
2023/10/16 15:41:31;;;;;;;4.35;3.65;;;;;;;;;;5055725;28;20045;-74
2023/10/16 15:43:58;;;;;;;5.43;3.60;;;;;;;;;;5055391;28;20025;-74
2023/10/16 15:46:30;;;;;;;3.95;3.58;;;;;;;;;;5055690;28;20084;-75
2023/10/16 15:48:59;;;;;;;3.22;2.95;;;;;;;;;;5056339;28;20108;-74
2023/10/16 15:51:25;;;;;;;5.85;3.40;;;;;;;;;;5059835;28;20017;-74
2023/10/16 15:53:54;;;;;;;3.17;2.88;;;;;;;;;;5064830;28;20028;-74
2023/10/16 15:56:24;;;;;;;3.85;3.45;;;;;;;;;;5068768;28;20510;-74
2023/10/16 15:58:50;;;;;;;4.03;3.30;;;;;;;;;;5067626;28;20031;-75
2023/10/16 16:01:17;;;;;;;4.55;3.50;;;;;;;;;;5065997;28;20021;-74
2023/10/16 16:03:43;;;;;;;4.70;4.15;;;;;;;;;;5068889;28;20025;-73
2023/10/16 16:06:10;;;;;;;3.55;3.17;;;;;;;;;;5067440;28;20025;-72
2023/10/16 16:08:39;;;;;;;4.90;3.65;;;;;;;;;;5055415;28;20028;-75
2023/10/16 16:11:05;;;;;;;3.00;2.58;;;;;;;;;;5054096;28;20103;-74
2023/10/16 16:13:35;;;;;;;5.53;3.40;;;;;;;;;;5054920;28;20040;-74
2023/10/16 16:16:02;;;;;;;3.88;3.20;;;;;;;;;;5053716;28;20083;-74
2023/10/16 16:18:29;;;;;;;4.13;3.38;;;;;;;;;;5054354;28;20029;-74
2023/10/16 16:20:55;;;;;;;4.03;2.78;;;;;;;;;;5054238;28;20108;-74
2023/10/16 16:23:24;;;;;;;4.13;3.75;;;;;;;;;;5053974;28;20029;-76
2023/10/16 16:25:53;;;;;;;5.55;3.58;;;;;;;;;;5054602;28;20100;-74
2023/10/16 16:28:19;;;;;;;3.10;2.78;;;;;;;;;;5055041;28;20017;-74
2023/10/16 16:30:45;;;;;;;3.67;2.50;;;;;;;;;;5054449;28;20045;-74
2023/10/16 16:33:12;;;;;;;3.22;2.10;;;;;;;;;;5053335;28;20128;-75
2023/10/16 16:35:38;;;;;;;2.10;1.90;;;;;;;;;;5054902;28;20053;-74
2023/10/16 16:38:07;;;;;;;4.05;2.42;;;;;;;;;;5055643;28;20112;-74
2023/10/16 16:40:37;;;;;;;4.15;2.80;;;;;;;;;;5053980;28;20033;-75
2023/10/16 16:43:04;;;;;;;3.58;2.50;;;;;;;;;;5054253;28;20025;-73
2023/10/16 16:45:30;;;;;;;4.68;3.33;;;;;;;;;;5054132;28;20036;-74
2023/10/16 16:47:57;;;;;;;3.97;3.10;;;;;;;;;;5054014;28;20387;-74
2023/10/16 16:50:26;;;;;;;3.13;2.83;;;;;;;;;;5055767;28;20137;-75